Friday, October 31, 2014
10:48 UTC
  |  Log In   |  Register Free
Airport Search:

Williamsburg-Jamestown Airport
(KJGG)

Williamsburg-Jamestown Airport Diagram
No Airport Diagram Available

FAA data valid effective September 18, 2014 - November 13, 2014 (unless otherwise noted).

 
 
 
 
 
 
 
 
 
 
 
 
 
 

Current Aviation Weather for Williamsburg-Jamestown Airport (KJGG)

The most recent METAR observation for KJGG was updated at: 1013
METAR Summary (Translated METAR)
KJGG
310955Z AUTO 02003KT 10SM CLR 08/07 A2999 RMK AO1
KFAF
310958Z AUTO 36004KT 10SM OVC055 09/09 A2995 RMK AO2 SLP145 T00930093 $
(8.2 nm SE from KJGG)
KPHF
310954Z 35006KT 8SM SCT050 09/07 A2997 RMK AO2 SLP147 T00940067
(12.5 nm SE from KJGG)
TAF Summary (Translated TAF)
KFAF
(8.2 nm SE from KJGG)
3110/0116 02009KT 9999 SCT050 QNH2982INS BECMG 3121/3122 02009KT 6000 -SHRA OVC030 QNH2978INS BECMG 0101/0102 02009KT 9999 NSW SCT030 OVC045 QNH2972INS BECMG 0108/0109 02009KT 9999 BKN045 BKN110 QNH2968INS TX16/3116Z TN08/3110Z
KPHF
(12.5 nm SE from KJGG)
310524Z 3106/0106 03004KT P6SM SKC FM311400 04008KT P6SM SCT040 SCT250 FM311900 04007KT P6SM BKN035
  Airport Weather Conditions for KJGG

 Current Weather at JGG
46° F
Fair
North winds at 3.5 mph
JGG NOAA Radar

Pressure: 29.99 in
Humidity: 93%
Wind: North at 3.5 MPH (3 KT)
Dew Point: 44.6°F
Visibility: 10.00 mi


Airport Weather Forecast for KJGG

Translated METAR and TAF for KJGG
Translated METAR for KJGG (1043 UTC 31 October 2014)
found at http://aviationweather.gov/adds/metars/
 
METAR text: KJGG 311035Z AUTO 02004KT 10SM CLR 08/07 A2998 RMK AO1
Conditions at: KJGG (WILLIAMSBURG , VA, US) observed 1035 UTC 31 October 2014
Temperature: 8.0°C (46°F)
Dewpoint: 7.0°C (45°F) [RH = 93%]
Pressure (altimeter): 29.98 inches Hg (1015.3 mb)
Winds: from the NNE (20 degrees) at 5 MPH (4 knots; 2.1 m/s)
Visibility: 10 or more miles (16+ km)
Ceiling: at least 12,000 feet AGL
Clouds: sky clear below 12,000 feet AGL
Weather: automated observation with no human augmentation;
there may or may not be significant weather present at this time
Translated TAF for KJGG

There is no translated TAF available for this airport

Find All Airport Services Find A Hotel Find A Rental Car Find A Golf Course Find A Restaurant $100 Hamburger



FBO's on the Field
FBO Company Facility Photos Services Transportation Aviation Fuel Prices: Prices include tax
Catering Weather Repair Courtesy Rental Type 100LL JetA JetA+ MOGAS 8087
 
Williamsburg-Jamestown

This FBO has not yet been rated
FS:Shell
Last Updated: Oct-28
Login to update fuel prices
SS:
Contact Williamsburg-JamestownMore FBO Information
 
Add another FBO Facility Photos Catering Weather Repair Courtesy Rental Type 100LL JetA JetA+ MOGAS 8087
Services Transportation Aviation Fuel Prices: Prices include tax


model-print
model-print
model-print
model-print